Time;durP1;ratioP1;P1;durP2;ratioP2;P2;SDS_P1;SDS_P2;PMS_P1;PMS_P2;Temp;Humidity;BMP_temperature;BMP_pressure;BME280_temperature;BME280_humidity;BME280_pressure;Samples;Min_cycle;Max_cycle;Signal;HPM_P1;HPM_P2
2022/07/10 00:02:12;;;;;;;14.15;1.42;;;19.20;81.00;;;;;;5095282;28;20120;-65
2022/07/10 00:04:38;;;;;;;6.70;1.10;;;19.20;81.60;;;;;;5094588;28;20052;-65
2022/07/10 00:07:04;;;;;;;8.30;1.52;;;19.20;81.80;;;;;;5094812;28;20386;-65
2022/07/10 00:09:30;;;;;;;8.93;1.45;;;19.10;82.00;;;;;;5095891;28;20020;-65
2022/07/10 00:11:56;;;;;;;13.98;1.67;;;19.20;82.50;;;;;;5103754;28;20530;-65
2022/07/10 00:14:25;;;;;;;7.55;1.48;;;19.20;82.70;;;;;;5102111;28;20055;-65
2022/07/10 00:16:50;;;;;;;8.25;1.50;;;19.20;83.00;;;;;;5105325;28;20055;-65
2022/07/10 00:19:16;;;;;;;8.95;1.38;;;19.10;83.00;;;;;;5100701;28;20082;-65
2022/07/10 00:21:42;;;;;;;9.38;1.33;;;19.10;83.10;;;;;;5104827;28;20028;-65
2022/07/10 00:24:10;;;;;;;13.10;3.03;;;19.10;83.10;;;;;;5102902;28;20039;-65
2022/07/10 00:26:36;;;;;;;7.40;1.40;;;19.10;83.10;;;;;;5101052;28;20028;-65
2022/07/10 00:29:01;;;;;;;5.68;1.30;;;19.10;83.70;;;;;;5100756;28;20020;-65
2022/07/10 00:31:27;;;;;;;5.55;1.15;;;19.10;83.10;;;;;;5106225;28;20072;-65
2022/07/10 00:33:53;;;;;;;11.27;1.45;;;19.00;83.00;;;;;;5094991;28;20108;-65
2022/07/10 00:36:19;;;;;;;8.10;1.38;;;19.00;82.90;;;;;;5100930;28;20495;-65
2022/07/10 00:38:44;;;;;;;10.65;1.38;;;19.10;82.80;;;;;;5101151;28;20040;-65
2022/07/10 00:41:10;;;;;;;7.22;1.33;;;19.00;82.50;;;;;;5100761;28;20023;-65
2022/07/10 00:44:05;;;;;;;4.47;1.20;;;19.00;82.10;;;;;;5101310;28;20028;-65
2022/07/10 00:46:31;;;;;;;5.22;1.40;;;18.90;81.90;;;;;;5090272;28;20054;-65
2022/07/10 00:48:57;;;;;;;7.07;1.55;;;18.90;81.60;;;;;;5093604;28;20032;-64
2022/07/10 00:51:29;;;;;;;4.95;1.10;;;18.90;82.10;;;;;;5088428;28;20028;-65
2022/07/10 00:53:56;;;;;;;11.73;1.58;;;18.90;81.50;;;;;;5101703;28;20047;-65
2022/07/10 00:56:26;;;;;;;7.38;1.70;;;18.80;81.50;;;;;;5093989;28;20032;-65
2022/07/10 00:58:53;;;;;;;9.75;1.40;;;18.80;81.50;;;;;;5102171;28;20036;-65
2022/07/10 01:01:19;;;;;;;8.15;1.30;;;18.80;81.50;;;;;;5093711;28;20036;-65
2022/07/10 01:03:46;;;;;;;4.80;1.10;;;18.70;81.50;;;;;;5093489;28;20035;-65
2022/07/10 01:06:12;;;;;;;9.18;1.75;;;18.80;81.70;;;;;;5094333;28;20028;-65
2022/07/10 01:08:39;;;;;;;11.18;1.65;;;18.70;82.20;;;;;;5092119;28;20044;-65
2022/07/10 01:11:05;;;;;;;6.88;1.17;;;18.80;82.30;;;;;;5084211;28;20085;-65
2022/07/10 01:13:31;;;;;;;7.18;1.38;;;18.80;82.40;;;;;;5090432;28;20113;-65
2022/07/10 01:15:57;;;;;;;5.32;1.67;;;18.70;82.20;;;;;;5093367;28;20468;-65
2022/07/10 01:18:25;;;;;;;7.25;1.67;;;18.80;82.30;;;;;;5091960;28;20031;-65
2022/07/10 01:20:55;;;;;;;8.85;1.83;;;18.80;82.20;;;;;;5102721;28;20032;-65
2022/07/10 01:23:21;;;;;;;7.55;1.20;;;18.70;81.90;;;;;;5082388;28;20497;-65
2022/07/10 01:25:48;;;;;;;8.55;1.48;;;18.70;81.90;;;;;;5090264;28;20028;-65
2022/07/10 01:28:19;;;;;;;9.75;1.40;;;18.60;81.70;;;;;;5093372;28;20064;-65
2022/07/10 01:30:45;;;;;;;4.28;1.35;;;18.60;82.40;;;;;;5093250;28;20032;-65
2022/07/10 01:33:10;;;;;;;10.30;1.63;;;18.60;81.90;;;;;;5100443;28;20500;-65
2022/07/10 01:35:36;;;;;;;6.25;1.98;;;18.70;81.90;;;;;;5105590;28;20030;-65
2022/07/10 01:38:02;;;;;;;7.20;1.42;;;18.70;82.10;;;;;;5111398;28;20141;-65
2022/07/10 01:40:28;;;;;;;6.03;1.13;;;18.70;82.10;;;;;;5112935;28;20032;-65
2022/07/10 01:42:54;;;;;;;13.80;1.83;;;18.70;82.20;;;;;;5098581;28;20418;-65
2022/07/10 01:45:20;;;;;;;9.85;1.50;;;18.70;82.30;;;;;;5104383;28;20043;-65
2022/07/10 01:47:45;;;;;;;7.05;1.83;;;18.70;82.50;;;;;;5093507;28;20020;-65
2022/07/10 01:50:11;;;;;;;10.82;1.88;;;18.70;82.50;;;;;;5092292;28;20039;-65
2022/07/10 01:52:37;;;;;;;9.82;1.40;;;18.60;82.60;;;;;;5092280;28;20040;-65
2022/07/10 01:55:04;;;;;;;6.32;1.40;;;18.70;82.80;;;;;;5097593;28;20110;-64
2022/07/10 01:57:30;;;;;;;6.13;1.45;;;18.70;82.80;;;;;;5094386;28;20482;-65
2022/07/10 01:59:56;;;;;;;11.07;1.27;;;18.70;82.90;;;;;;5097532;28;20020;-65
2022/07/10 02:02:21;;;;;;;6.57;1.30;;;18.70;83.00;;;;;;5086951;28;20413;-65
2022/07/10 02:04:47;;;;;;;6.80;2.03;;;18.70;83.10;;;;;;5093241;28;20081;-65
2022/07/10 02:07:15;;;;;;;9.52;2.00;;;18.60;83.00;;;;;;5092602;28;20385;-65
2022/07/10 02:09:42;;;;;;;7.00;1.50;;;18.60;82.90;;;;;;5093096;28;20027;-65
2022/07/10 02:12:13;;;;;;;7.43;1.65;;;18.70;82.80;;;;;;5091786;28;20044;-65
2022/07/10 02:14:39;;;;;;;6.50;1.35;;;18.60;82.40;;;;;;5092927;28;20130;-65
2022/07/10 02:17:06;;;;;;;6.20;1.33;;;18.60;82.20;;;;;;5091487;28;20099;-65
2022/07/10 02:19:32;;;;;;;7.30;1.30;;;18.60;82.20;;;;;;5092615;28;20024;-65
2022/07/10 02:21:59;;;;;;;7.50;1.48;;;18.60;82.00;;;;;;5092352;28;20093;-65
2022/07/10 02:24:25;;;;;;;9.73;1.27;;;18.60;82.50;;;;;;5091554;28;20036;-65
2022/07/10 02:26:50;;;;;;;11.07;1.55;;;18.60;81.90;;;;;;5092336;28;20043;-65
2022/07/10 02:29:19;;;;;;;6.57;1.48;;;18.50;81.50;;;;;;5104339;28;20032;-65
2022/07/10 02:31:45;;;;;;;7.15;1.50;;;18.50;81.60;;;;;;5100242;28;20034;-65
2022/07/10 02:34:12;;;;;;;8.18;1.05;;;18.50;81.40;;;;;;5096815;28;20044;-65
2022/07/10 02:36:38;;;;;;;7.63;1.90;;;18.50;81.30;;;;;;5109854;28;20490;-65
2022/07/10 02:39:05;;;;;;;3.20;1.13;;;18.50;81.30;;;;;;5098417;28;20107;-65
2022/07/10 02:41:31;;;;;;;9.13;1.40;;;18.40;81.30;;;;;;5103975;28;20111;-65
2022/07/10 02:43:57;;;;;;;5.78;1.10;;;18.50;81.30;;;;;;5106595;28;20110;-65
2022/07/10 02:46:22;;;;;;;10.27;1.48;;;18.50;81.10;;;;;;5111643;28;20419;-65
2022/07/10 02:48:48;;;;;;;8.02;1.65;;;18.40;80.80;;;;;;5084989;28;20031;-65
2022/07/10 02:51:14;;;;;;;5.32;1.50;;;18.40;81.00;;;;;;5104305;28;20075;-64
2022/07/10 02:53:40;;;;;;;12.90;1.48;;;18.40;81.00;;;;;;5089401;28;20043;-65
2022/07/10 02:56:06;;;;;;;9.55;1.35;;;18.30;81.10;;;;;;5092642;28;20040;-65
2022/07/10 02:58:33;;;;;;;8.88;1.27;;;18.40;81.30;;;;;;5091373;28;20043;-65
2022/07/10 03:00:59;;;;;;;13.50;2.22;;;18.40;81.30;;;;;;5111440;28;20028;-65
2022/07/10 03:03:25;;;;;;;10.30;1.45;;;18.30;81.10;;;;;;5110798;28;20108;-65
2022/07/10 03:05:53;;;;;;;10.48;1.65;;;18.30;81.20;;;;;;5111903;28;20775;-64
2022/07/10 03:08:19;;;;;;;11.68;1.63;;;18.30;81.20;;;;;;5095170;28;20078;-65
2022/07/10 03:10:45;;;;;;;7.85;1.58;;;18.30;81.30;;;;;;5084010;28;20025;-65
2022/07/10 03:13:11;;;;;;;13.80;1.80;;;18.30;81.40;;;;;;5086038;28;20415;-65
2022/07/10 03:15:36;;;;;;;5.28;1.38;;;18.30;81.50;;;;;;5099881;28;20019;-64
2022/07/10 03:18:02;;;;;;;9.10;1.70;;;18.30;81.60;;;;;;5096007;28;20031;-65
2022/07/10 03:20:31;;;;;;;10.68;1.60;;;18.20;81.60;;;;;;5100581;28;20024;-65
2022/07/10 03:22:57;;;;;;;7.18;1.90;;;18.30;81.70;;;;;;5107965;28;20062;-65
2022/07/10 03:25:22;;;;;;;8.50;1.45;;;18.20;81.60;;;;;;5091498;28;20028;-65
2022/07/10 03:27:48;;;;;;;11.98;1.63;;;18.20;81.70;;;;;;5090251;28;20031;-65
2022/07/10 03:30:14;;;;;;;14.20;1.92;;;18.30;81.90;;;;;;5092085;28;20098;-65
2022/07/10 03:32:39;;;;;;;11.77;1.92;;;18.20;82.00;;;;;;5094281;28;20508;-65
2022/07/10 03:35:05;;;;;;;6.50;1.33;;;18.20;82.10;;;;;;5093899;28;20040;-65
2022/07/10 03:37:31;;;;;;;15.85;1.90;;;18.20;82.10;;;;;;5090472;28;20494;-65
2022/07/10 03:39:57;;;;;;;10.52;1.77;;;18.20;82.30;;;;;;5091984;28;20043;-64
2022/07/10 03:42:22;;;;;;;8.70;1.80;;;18.20;82.40;;;;;;5089765;28;20074;-65
2022/07/10 03:44:48;;;;;;;7.10;1.42;;;18.20;82.50;;;;;;5090769;28;20032;-65
2022/07/10 03:47:14;;;;;;;4.85;1.55;;;18.10;82.40;;;;;;5094110;28;20023;-65
2022/07/10 03:49:41;;;;;;;8.38;1.45;;;18.20;82.40;;;;;;5090824;28;20503;-65
2022/07/10 03:52:07;;;;;;;3.75;1.20;;;18.20;82.40;;;;;;5093452;28;20392;-65
2022/07/10 03:54:32;;;;;;;3.70;1.50;;;18.20;82.40;;;;;;5094195;28;20395;-65
2022/07/10 03:59:43;;;;;;;17.95;2.20;;;18.20;82.40;;;;;;5090850;28;20024;-65
2022/07/10 04:02:11;;;;;;;5.53;1.10;;;18.20;82.40;;;;;;5073958;28;20388;-65
2022/07/10 04:04:37;;;;;;;9.45;1.60;;;18.20;82.30;;;;;;5087365;28;20032;-65
2022/07/10 04:07:05;;;;;;;9.18;1.40;;;18.20;82.30;;;;;;5091867;28;20032;-65
2022/07/10 04:09:34;;;;;;;9.63;1.63;;;18.20;82.30;;;;;;5090909;28;20031;-65
2022/07/10 04:12:00;;;;;;;7.15;1.80;;;18.20;82.40;;;;;;5090026;28;20074;-65
2022/07/10 04:14:26;;;;;;;6.95;1.73;;;18.20;82.50;;;;;;5091812;28;20040;-65
2022/07/10 04:16:57;;;;;;;7.55;1.38;;;18.20;82.60;;;;;;5092414;28;20161;-65
2022/07/10 04:19:23;;;;;;;11.48;1.58;;;18.20;82.80;;;;;;5090969;28;20020;-65
2022/07/10 04:21:49;;;;;;;10.38;1.70;;;18.20;83.00;;;;;;5095969;28;20035;-65
2022/07/10 04:24:15;;;;;;;10.90;1.55;;;18.20;82.90;;;;;;5094431;28;20024;-65
2022/07/10 04:26:41;;;;;;;7.85;1.50;;;18.20;82.80;;;;;;5094232;28;20024;-65
2022/07/10 04:29:06;;;;;;;5.95;1.25;;;18.20;82.80;;;;;;5093782;28;20031;-65
2022/07/10 04:31:32;;;;;;;11.55;1.65;;;18.20;82.90;;;;;;5094505;28;20111;-65
2022/07/10 04:33:58;;;;;;;11.55;1.48;;;18.20;82.90;;;;;;5094875;28;20047;-64
2022/07/10 04:36:24;;;;;;;11.07;1.58;;;18.20;83.00;;;;;;5095070;28;20107;-65
2022/07/10 04:38:58;;;;;;;5.72;1.77;;;18.20;82.90;;;;;;5096277;28;20028;-65
2022/07/10 04:41:24;;;;;;;12.60;1.77;;;18.20;83.10;;;;;;5095464;28;20040;-65
2022/07/10 04:43:50;;;;;;;9.77;1.50;;;18.20;83.10;;;;;;5094408;28;20118;-65
2022/07/10 04:46:15;;;;;;;7.35;1.27;;;18.20;83.20;;;;;;5093207;28;20480;-65
2022/07/10 04:48:41;;;;;;;11.50;1.83;;;18.30;83.30;;;;;;5094631;28;20355;-64
2022/07/10 04:51:07;;;;;;;6.07;1.30;;;18.20;83.20;;;;;;5093779;28;20028;-65
2022/07/10 04:53:32;;;;;;;10.65;1.48;;;18.20;83.20;;;;;;5095176;28;20376;-65
2022/07/10 04:55:58;;;;;;;11.15;1.63;;;18.30;83.50;;;;;;5097492;28;20105;-65
2022/07/10 04:58:24;;;;;;;6.35;1.48;;;18.20;83.40;;;;;;5104285;28;20356;-65
2022/07/10 05:00:49;;;;;;;10.85;2.10;;;18.30;83.40;;;;;;5102373;28;20116;-64
2022/07/10 05:03:17;;;;;;;8.85;1.73;;;18.30;83.60;;;;;;5106720;28;20454;-65
2022/07/10 05:05:43;;;;;;;10.05;1.77;;;18.30;83.70;;;;;;5097379;28;20071;-65
2022/07/10 05:08:09;;;;;;;7.80;2.10;;;18.30;83.80;;;;;;5099102;28;20035;-65
2022/07/10 05:10:35;;;;;;;8.85;1.38;;;18.30;84.00;;;;;;5090650;28;20061;-65
2022/07/10 05:13:04;;;;;;;8.75;1.60;;;18.30;84.00;;;;;;5096870;28;20051;-65
2022/07/10 05:15:30;;;;;;;10.77;2.22;;;18.30;84.70;;;;;;5095570;28;20030;-65
2022/07/10 05:17:55;;;;;;;5.80;1.40;;;18.30;84.20;;;;;;5101991;28;20025;-65
2022/07/10 05:20:21;;;;;;;8.82;1.67;;;18.30;84.20;;;;;;5099521;28;20024;-65
2022/07/10 05:22:47;;;;;;;7.07;1.42;;;18.30;84.10;;;;;;5091799;28;20043;-65
2022/07/10 05:25:13;;;;;;;8.90;2.10;;;18.30;84.40;;;;;;5098925;28;20032;-65
2022/07/10 05:27:38;;;;;;;6.43;1.55;;;18.30;84.40;;;;;;5100971;28;20035;-65
2022/07/10 05:30:04;;;;;;;7.53;1.92;;;18.30;84.40;;;;;;5095817;28;20376;-65
2022/07/10 05:32:30;;;;;;;4.05;1.60;;;18.40;84.70;;;;;;5103303;28;20410;-65
2022/07/10 05:34:59;;;;;;;3.42;1.30;;;18.40;84.80;;;;;;5102972;28;20483;-65
2022/07/10 05:37:25;;;;;;;3.60;1.30;;;18.40;84.80;;;;;;5101299;28;20032;-65
2022/07/10 05:39:51;;;;;;;6.70;1.45;;;18.40;84.80;;;;;;5102831;28;20027;-65
2022/07/10 05:42:17;;;;;;;11.27;2.75;;;18.40;84.80;;;;;;5099464;28;20023;-65
2022/07/10 05:44:42;;;;;;;6.63;1.83;;;18.40;84.90;;;;;;5100582;28;20081;-65
2022/07/10 05:47:08;;;;;;;3.55;1.20;;;18.40;84.60;;;;;;5101252;28;20036;-65
2022/07/10 05:49:34;;;;;;;8.43;1.30;;;18.40;84.50;;;;;;5093443;28;20052;-65
2022/07/10 05:51:59;;;;;;;9.57;1.40;;;18.40;84.70;;;;;;5098232;28;20442;-64
2022/07/10 05:54:25;;;;;;;8.75;2.03;;;18.40;85.00;;;;;;5094260;28;20036;-65
2022/07/10 05:56:51;;;;;;;6.05;1.50;;;18.40;85.20;;;;;;5096551;28;20020;-65
2022/07/10 05:59:16;;;;;;;5.63;1.35;;;18.50;85.30;;;;;;5096221;28;20068;-65
2022/07/10 06:01:42;;;;;;;8.32;1.27;;;18.50;85.20;;;;;;5099734;28;20029;-65
2022/07/10 06:04:11;;;;;;;7.72;1.27;;;18.50;85.00;;;;;;5099226;28;20046;-64
2022/07/10 06:06:36;;;;;;;6.63;1.35;;;18.50;84.80;;;;;;5102434;28;20107;-64
2022/07/10 06:09:05;;;;;;;3.58;1.20;;;18.50;85.00;;;;;;5094589;28;20426;-64
2022/07/10 06:11:30;;;;;;;9.65;1.40;;;18.60;85.40;;;;;;5102218;28;20093;-64
2022/07/10 06:13:56;;;;;;;9.00;1.10;;;18.50;85.60;;;;;;5102972;28;20032;-63
2022/07/10 06:16:22;;;;;;;6.13;1.30;;;18.50;85.30;;;;;;5102633;28;20035;-64
2022/07/10 06:18:48;;;;;;;6.45;1.42;;;18.50;85.90;;;;;;5096860;28;20044;-63
2022/07/10 06:21:14;;;;;;;4.10;0.90;;;18.50;85.60;;;;;;5096974;28;20107;-63
2022/07/10 06:23:39;;;;;;;6.32;1.00;;;18.50;85.50;;;;;;5097768;28;20063;-64
2022/07/10 06:26:05;;;;;;;6.22;1.27;;;18.50;85.50;;;;;;5094073;28;20070;-64
2022/07/10 06:28:33;;;;;;;2.10;0.65;;;18.60;85.90;;;;;;5103981;28;20706;-64
2022/07/10 06:31:01;;;;;;;5.95;1.20;;;18.60;86.00;;;;;;5098185;28;20028;-64
2022/07/10 06:33:27;;;;;;;5.18;1.20;;;18.60;86.20;;;;;;5084358;28;20066;-64
2022/07/10 06:35:53;;;;;;;5.22;1.02;;;18.70;86.30;;;;;;5096934;28;20043;-64
2022/07/10 06:38:18;;;;;;;8.30;2.42;;;18.70;86.00;;;;;;5096807;28;20392;-64
2022/07/10 06:40:47;;;;;;;4.93;1.27;;;18.70;86.30;;;;;;5097399;28;20027;-64
2022/07/10 06:43:12;;;;;;;6.55;1.30;;;18.70;86.40;;;;;;5100554;28;20028;-64
2022/07/10 06:45:48;;;;;;;13.07;1.70;;;18.70;86.40;;;;;;5087633;28;20582;-64
2022/07/10 06:48:14;;;;;;;10.73;1.65;;;18.70;86.40;;;;;;5099900;28;20039;-64
2022/07/10 06:50:41;;;;;;;4.00;1.50;;;18.70;86.50;;;;;;5096345;28;20477;-64
2022/07/10 06:53:07;;;;;;;5.45;1.58;;;18.80;87.10;;;;;;5097410;28;20040;-65
2022/07/10 06:55:35;;;;;;;6.45;0.93;;;18.70;87.10;;;;;;5088999;28;20111;-64
2022/07/10 06:58:02;;;;;;;4.32;0.93;;;18.70;87.10;;;;;;5092606;28;20762;-64
2022/07/10 07:00:27;;;;;;;2.65;1.05;;;18.80;86.90;;;;;;5091076;28;20480;-65
2022/07/10 07:02:53;;;;;;;6.20;1.20;;;18.80;87.30;;;;;;5090108;28;20031;-64
2022/07/10 07:05:19;;;;;;;6.43;1.27;;;18.80;87.20;;;;;;5092387;28;20430;-64
2022/07/10 07:07:45;;;;;;;3.88;1.17;;;18.80;87.30;;;;;;5104784;28;20375;-64
2022/07/10 07:10:11;;;;;;;8.05;1.35;;;18.80;87.30;;;;;;5101923;28;20028;-64
2022/07/10 07:12:37;;;;;;;2.78;1.00;;;18.80;88.40;;;;;;5079692;28;20043;-65
2022/07/10 07:15:03;;;;;;;5.30;1.63;;;18.80;88.20;;;;;;5093627;28;20038;-65
2022/07/10 07:17:46;;;;;;;4.40;0.98;;;18.80;88.40;;;;;;5088666;28;20043;-66
2022/07/10 07:23:09;;;;;;;8.65;1.70;;;18.80;89.00;;;;;;5084028;28;20025;-66
2022/07/10 07:25:35;;;;;;;5.43;1.23;;;18.80;89.20;;;;;;5084816;28;20032;-66
2022/07/10 07:28:01;;;;;;;9.10;2.13;;;18.80;89.10;;;;;;5097798;28;20058;-66
2022/07/10 07:30:27;;;;;;;4.57;1.33;;;18.90;88.70;;;;;;5091837;28;20024;-66
2022/07/10 07:32:55;;;;;;;7.70;1.40;;;18.80;89.10;;;;;;5094130;28;20067;-66
2022/07/10 07:35:21;;;;;;;7.90;1.10;;;18.90;89.20;;;;;;5091227;28;20059;-66
2022/07/10 07:37:49;;;;;;;6.63;1.40;;;18.90;89.20;;;;;;5086447;28;20031;-66
2022/07/10 07:40:22;;;;;;;5.80;1.33;;;18.90;89.50;;;;;;5086673;28;20032;-66
2022/07/10 07:42:53;;;;;;;6.47;1.23;;;18.90;89.80;;;;;;5100347;28;20031;-66
2022/07/10 07:45:19;;;;;;;6.55;1.10;;;19.00;89.40;;;;;;5093011;28;20499;-66
2022/07/10 07:47:54;;;;;;;4.38;1.00;;;19.00;88.80;;;;;;5091477;28;20027;-66
2022/07/10 07:50:32;;;;;;;5.85;1.45;;;19.00;88.40;;;;;;5089574;28;20024;-66
2022/07/10 07:52:59;;;;;;;6.93;1.15;;;19.00;88.80;;;;;;5089085;28;20043;-66
2022/07/10 07:55:25;;;;;;;4.78;1.08;;;19.00;88.10;;;;;;5089809;28;20069;-66
2022/07/10 07:57:55;;;;;;;3.10;1.00;;;19.10;88.20;;;;;;5097391;28;20032;-66
2022/07/10 08:00:23;;;;;;;5.93;1.30;;;19.10;87.80;;;;;;5087309;28;20027;-67
2022/07/10 08:02:50;;;;;;;4.80;0.82;;;19.20;88.40;;;;;;5092934;28;20074;-68
2022/07/10 08:05:16;;;;;;;5.15;1.48;;;19.20;87.80;;;;;;5093403;28;20103;-66
2022/07/10 08:07:45;;;;;;;6.18;2.10;;;19.20;87.70;;;;;;5097732;28;20032;-68
2022/07/10 08:10:13;;;;;;;3.67;1.00;;;19.20;87.90;;;;;;5086334;28;20862;-68
2022/07/10 08:12:40;;;;;;;3.75;1.42;;;19.20;87.90;;;;;;5094549;28;20067;-66
2022/07/10 08:15:08;;;;;;;5.82;1.23;;;19.30;88.20;;;;;;5091634;28;20078;-66
2022/07/10 08:17:34;;;;;;;5.07;1.10;;;19.20;88.10;;;;;;5093336;28;20035;-66
2022/07/10 08:20:01;;;;;;;3.38;1.00;;;19.30;88.30;;;;;;5099085;28;20040;-64
2022/07/10 08:22:26;;;;;;;3.53;0.90;;;19.20;88.30;;;;;;5094533;28;20471;-64
2022/07/10 08:24:52;;;;;;;4.68;1.08;;;19.30;88.40;;;;;;5092612;28;20036;-65
2022/07/10 08:27:18;;;;;;;5.13;0.85;;;19.30;88.80;;;;;;5095452;28;20035;-65
2022/07/10 08:29:43;;;;;;;7.25;0.80;;;19.30;88.20;;;;;;5093129;28;20531;-64
2022/07/10 08:32:09;;;;;;;0.47;0.30;;;19.20;88.40;;;;;;5094093;28;20024;-64
2022/07/10 08:34:36;;;;;;;4.25;0.90;;;19.30;87.90;;;;;;5095163;28;20080;-67
2022/07/10 08:37:05;;;;;;;4.75;0.80;;;19.20;87.90;;;;;;5094126;28;20035;-67
2022/07/10 08:39:33;;;;;;;1.00;0.50;;;19.30;88.20;;;;;;5094067;28;20032;-65
2022/07/10 08:41:59;;;;;;;2.42;0.68;;;19.30;88.40;;;;;;5093592;28;20483;-64
2022/07/10 08:44:26;;;;;;;3.55;1.08;;;19.30;88.90;;;;;;5091556;28;20030;-65
2022/07/10 08:46:51;;;;;;;3.70;1.23;;;19.30;89.20;;;;;;5086454;28;20445;-64
2022/07/10 08:49:28;;;;;;;2.83;0.63;;;19.30;89.30;;;;;;5097369;28;20032;-67
2022/07/10 08:52:12;;;;;;;1.08;0.63;;;19.30;89.30;;;;;;5092871;28;20107;-68
2022/07/10 08:54:38;;;;;;;4.03;0.82;;;19.40;89.00;;;;;;5091391;28;20033;-66
2022/07/10 08:57:05;;;;;;;3.70;1.02;;;19.40;88.90;;;;;;5085034;28;20028;-64
2022/07/10 08:59:31;;;;;;;7.75;1.00;;;19.40;89.00;;;;;;5087979;28;20099;-65
2022/07/10 09:01:58;;;;;;;4.68;0.90;;;19.50;89.00;;;;;;5088615;28;20059;-65
2022/07/10 09:04:25;;;;;;;4.05;0.88;;;19.50;89.20;;;;;;5078776;28;20115;-64
2022/07/10 09:06:53;;;;;;;2.33;0.95;;;19.60;89.30;;;;;;5098397;28;20468;-66
2022/07/10 09:09:23;;;;;;;2.10;0.65;;;19.60;89.20;;;;;;5088966;28;20052;-65
2022/07/10 09:11:57;;;;;;;10.80;1.08;;;19.60;89.20;;;;;;5090321;28;20056;-66
2022/07/10 09:14:27;;;;;;;4.68;0.77;;;19.70;89.70;;;;;;5087590;28;20483;-65
2022/07/10 09:16:54;;;;;;;2.10;0.75;;;19.70;89.00;;;;;;5091865;28;20025;-66
2022/07/10 09:19:22;;;;;;;3.65;0.90;;;19.70;88.30;;;;;;5096625;28;20027;-66
2022/07/10 09:22:03;;;;;;;5.45;0.68;;;19.70;88.20;;;;;;5096810;28;20031;-66
2022/07/10 09:24:36;;;;;;;8.23;0.77;;;19.80;88.30;;;;;;5101297;28;20081;-67
2022/07/10 09:27:05;;;;;;;6.28;1.40;;;19.90;88.50;;;;;;5087439;28;20119;-67
2022/07/10 09:29:32;;;;;;;3.63;0.90;;;19.80;88.30;;;;;;5091773;28;20020;-66
2022/07/10 09:32:02;;;;;;;1.52;0.60;;;19.90;88.30;;;;;;5082551;28;20036;-67
2022/07/10 09:34:39;;;;;;;4.60;0.77;;;19.90;88.00;;;;;;5082791;28;20171;-68
2022/07/10 09:37:24;;;;;;;1.05;0.63;;;20.00;87.80;;;;;;5086460;28;20471;-70
2022/07/10 09:40:03;;;;;;;7.70;1.05;;;20.00;87.80;;;;;;5082661;28;20034;-68
2022/07/10 09:42:34;;;;;;;1.27;0.68;;;20.00;87.80;;;;;;5084160;28;20047;-67
2022/07/10 09:45:12;;;;;;;2.70;0.50;;;20.00;87.90;;;;;;5083574;28;20627;-67
2022/07/10 09:47:43;;;;;;;7.07;0.93;;;20.10;88.00;;;;;;5083067;28;20032;-67
2022/07/10 09:50:19;;;;;;;8.85;0.98;;;20.10;88.40;;;;;;5087173;28;20445;-67
2022/07/10 09:52:46;;;;;;;3.97;0.82;;;20.20;88.30;;;;;;5084049;28;20040;-67
2022/07/10 09:55:14;;;;;;;4.95;1.17;;;20.20;88.30;;;;;;5088942;28;20024;-67
2022/07/10 09:57:43;;;;;;;4.35;1.58;;;20.20;88.20;;;;;;5091635;28;20107;-68
2022/07/10 10:00:10;;;;;;;3.88;1.10;;;20.20;89.10;;;;;;5098146;28;20491;-68
2022/07/10 10:02:38;;;;;;;3.22;0.90;;;20.20;89.00;;;;;;5080659;28;20069;-70
2022/07/10 10:05:05;;;;;;;0.50;0.50;;;20.20;89.30;;;;;;5096818;28;20079;-67
2022/07/10 10:07:34;;;;;;;3.25;0.80;;;20.20;88.80;;;;;;5094525;28;20067;-67
2022/07/10 10:10:01;;;;;;;1.83;0.80;;;20.10;89.40;;;;;;5096515;28;20036;-67
2022/07/10 10:12:45;;;;;;;2.42;0.80;;;20.20;89.80;;;;;;5092500;28;20039;-67
2022/07/10 10:15:11;;;;;;;;;;;20.10;90.00;;;;;;5096481;28;20042;-67
2022/07/10 10:17:38;;;;;;;1.60;0.50;;;20.20;89.20;;;;;;5092894;28;19908;-67
2022/07/10 10:22:55;;;;;;;1.48;0.70;;;20.20;89.80;;;;;;5088417;28;20395;-67
2022/07/10 10:25:23;;;;;;;1.52;0.73;;;20.20;90.00;;;;;;5099768;28;20027;-68
2022/07/10 10:27:50;;;;;;;4.03;0.80;;;20.20;90.20;;;;;;5104616;28;20095;-68
2022/07/10 10:30:17;;;;;;;3.40;0.90;;;20.20;90.20;;;;;;5092334;28;20024;-68
2022/07/10 10:32:43;;;;;;;5.97;1.23;;;20.20;90.40;;;;;;5090751;28;20043;-70
2022/07/10 10:35:15;;;;;;;7.55;0.75;;;20.20;90.30;;;;;;5096128;28;20028;-68
2022/07/10 10:37:50;;;;;;;3.58;0.98;;;20.30;90.30;;;;;;5087850;28;20054;-69
2022/07/10 10:40:33;;;;;;;6.05;1.42;;;20.30;90.70;;;;;;5095914;28;20067;-67
2022/07/10 10:43:15;;;;;;;4.90;1.20;;;20.30;90.40;;;;;;5091070;28;20042;-68
2022/07/10 10:45:41;;;;;;;2.97;0.82;;;20.30;90.60;;;;;;5093156;28;20023;-67
2022/07/10 10:48:12;;;;;;;5.03;1.30;;;20.30;90.50;;;;;;5096253;28;20024;-67
2022/07/10 10:50:40;;;;;;;2.35;0.85;;;20.40;90.60;;;;;;5099357;28;20027;-67
2022/07/10 10:53:27;;;;;;;3.65;1.23;;;20.50;90.50;;;;;;5095685;28;20066;-67
2022/07/10 10:56:08;;;;;;;2.22;1.10;;;20.50;90.40;;;;;;5101713;28;20111;-67
2022/07/10 10:58:39;;;;;;;6.50;1.45;;;20.50;90.50;;;;;;5099193;28;20042;-67
2022/07/10 11:01:24;;;;;;;1.50;0.77;;;20.50;90.70;;;;;;5088122;28;20028;-67
2022/07/10 11:04:04;;;;;;;4.38;1.10;;;20.50;90.50;;;;;;5109761;28;20027;-67
2022/07/10 11:06:40;;;;;;;8.60;1.17;;;20.50;91.10;;;;;;5110637;28;20039;-68
2022/07/10 11:09:34;;;;;;;10.40;1.20;;;20.50;91.00;;;;;;5082207;28;20024;-67
2022/07/10 11:12:07;;;;;;;6.57;1.45;;;20.50;90.90;;;;;;5087659;28;20042;-67
2022/07/10 11:14:44;;;;;;;6.07;1.25;;;20.50;91.00;;;;;;5103814;28;20038;-68
2022/07/10 11:17:10;;;;;;;1.63;1.00;;;20.50;90.80;;;;;;5086822;28;20111;-68
2022/07/10 11:19:36;;;;;;;3.95;1.15;;;20.60;90.80;;;;;;5095472;28;20110;-70
2022/07/10 11:22:37;;;;;;;4.32;1.40;;;20.60;90.70;;;;;;5089164;28;20457;-66
2022/07/10 11:25:34;;;;;;;4.88;1.65;;;20.60;90.90;;;;;;5058768;28;20503;-67
2022/07/10 11:28:11;;;;;;;3.70;1.10;;;20.70;90.80;;;;;;5092632;28;20501;-66
2022/07/10 11:31:06;;;;;;;5.90;1.42;;;20.70;90.80;;;;;;5097251;28;20508;-67
2022/07/10 11:33:42;;;;;;;4.03;1.38;;;20.70;90.80;;;;;;5065972;28;20040;-66
2022/07/10 11:36:15;;;;;;;4.30;1.27;;;20.70;90.90;;;;;;5094130;28;20069;-71
2022/07/10 11:38:42;;;;;;;4.55;1.30;;;20.70;91.10;;;;;;5098795;28;20036;-68
2022/07/10 11:41:19;;;;;;;2.47;1.15;;;20.70;91.10;;;;;;5088222;28;20041;-69
2022/07/10 11:43:47;;;;;;;4.55;1.27;;;20.70;90.90;;;;;;5084938;28;20113;-71
2022/07/10 11:46:14;;;;;;;8.65;1.40;;;20.70;90.80;;;;;;5092462;28;20492;-68
2022/07/10 11:48:40;;;;;;;2.50;1.10;;;20.60;90.80;;;;;;5089817;28;20734;-68
2022/07/10 11:51:21;;;;;;;7.93;1.30;;;20.60;91.00;;;;;;5094817;28;20472;-68
2022/07/10 11:54:03;;;;;;;5.50;1.58;;;20.60;90.90;;;;;;5099688;28;20047;-68
2022/07/10 11:56:34;;;;;;;3.35;1.45;;;20.70;91.00;;;;;;5088357;28;20241;-67
2022/07/10 11:59:01;;;;;;;6.20;1.60;;;20.60;91.00;;;;;;5099009;28;20074;-69
2022/07/10 12:01:29;;;;;;;3.47;1.30;;;20.70;91.10;;;;;;5093712;28;20403;-68
2022/07/10 12:04:06;;;;;;;4.80;1.55;;;20.70;91.10;;;;;;5099597;28;20031;-68
2022/07/10 12:06:35;;;;;;;4.82;1.20;;;20.70;91.10;;;;;;5099877;28;20032;-69
2022/07/10 12:09:06;;;;;;;5.07;1.38;;;20.70;90.80;;;;;;5095535;28;20032;-69
2022/07/10 12:11:32;;;;;;;6.30;1.27;;;20.60;90.80;;;;;;5099707;28;20091;-68
2022/07/10 12:14:19;;;;;;;2.90;1.20;;;20.60;91.10;;;;;;5096160;28;20482;-71
2022/07/10 12:16:47;;;;;;;5.88;1.42;;;20.60;90.90;;;;;;5096746;28;20115;-68
2022/07/10 12:19:18;;;;;;;3.85;1.15;;;20.60;90.90;;;;;;5102873;28;20035;-68
2022/07/10 12:21:45;;;;;;;4.55;1.35;;;20.60;91.10;;;;;;5097603;28;20052;-68
2022/07/10 12:24:15;;;;;;;2.70;1.00;;;20.70;91.00;;;;;;5093356;28;20032;-69
2022/07/10 12:26:43;;;;;;;5.32;1.13;;;20.70;90.70;;;;;;5092599;28;20039;-67
2022/07/10 12:29:26;;;;;;;4.50;1.40;;;20.70;90.60;;;;;;5097892;28;20027;-67
2022/07/10 12:31:58;;;;;;;4.50;1.42;;;20.70;90.70;;;;;;5090454;28;20038;-68
2022/07/10 12:34:39;;;;;;;3.17;1.20;;;20.70;90.70;;;;;;5094638;28;20451;-68
2022/07/10 12:37:09;;;;;;;7.20;2.38;;;20.70;90.70;;;;;;5104055;28;20023;-66
2022/07/10 12:39:47;;;;;;;12.40;1.70;;;20.70;90.60;;;;;;5095172;28;20036;-68
2022/07/10 12:42:14;;;;;;;5.35;1.17;;;20.70;90.60;;;;;;5094859;28;20034;-67
2022/07/10 12:44:42;;;;;;;4.72;1.27;;;20.70;90.50;;;;;;5103685;28;20076;-67
2022/07/10 12:47:13;;;;;;;6.28;1.30;;;20.70;90.60;;;;;;5094186;28;20035;-69
2022/07/10 12:49:55;;;;;;;8.43;1.40;;;20.70;90.70;;;;;;5095843;28;20028;-68
2022/07/10 12:52:28;;;;;;;7.40;1.38;;;20.70;90.80;;;;;;5097182;28;20063;-69
2022/07/10 12:55:09;;;;;;;;;;;20.70;91.00;;;;;;5094821;28;20039;-67
2022/07/10 12:57:56;;;;;;;4.93;1.52;;;20.70;90.50;;;;;;5076285;28;19919;-68
2022/07/10 13:00:26;;;;;;;7.80;1.30;;;20.70;90.60;;;;;;5071777;28;20037;-68
2022/07/10 13:03:04;;;;;;;4.47;1.17;;;20.80;90.70;;;;;;5084838;28;20539;-67